Time;durP1;ratioP1;P1;durP2;ratioP2;P2;SDS_P1;SDS_P2;PMS_P1;PMS_P2;Temp;Humidity;BMP_temperature;BMP_pressure;BME280_temperature;BME280_humidity;BME280_pressure;Samples;Min_cycle;Max_cycle;Signal;HPM_P1;HPM_P2
2021/07/20 04:01:28;;;;;;;7.30;6.37;;;12.30;96.30;;;;;;5490504;23;20507;-84
2021/07/20 04:03:55;;;;;;;8.73;6.67;;;12.30;96.30;;;;;;4914304;29;20424;-83
2021/07/20 04:06:23;;;;;;;7.33;5.90;;;12.40;96.30;;;;;;4915203;29;20933;-83
2021/07/20 04:08:51;;;;;;;7.27;5.90;;;12.40;96.30;;;;;;4915936;29;20419;-84
2021/07/20 04:11:17;;;;;;;6.87;6.10;;;;;;;;;;4914544;29;20465;-83
2021/07/20 04:13:43;;;;;;;9.53;6.10;;;12.40;96.30;;;;;;4915827;29;20460;-84
2021/07/20 04:16:10;;;;;;;9.60;6.30;;;12.50;96.30;;;;;;4917511;29;20180;-84
2021/07/20 04:18:37;;;;;;;6.90;6.13;;;12.40;96.30;;;;;;4925834;29;20429;-84
2021/07/20 04:46:58;;;;;;;14.73;6.17;;;12.60;96.30;;;;;;5745442;23;20489;-86
2021/07/20 04:49:24;;;;;;;8.73;5.70;;;;;;;;;;4972935;28;20496;-86
2021/07/20 04:51:50;;;;;;;9.43;5.57;;;12.70;96.30;;;;;;4955646;28;20285;-87
2021/07/20 04:54:17;;;;;;;7.90;5.60;;;12.70;96.30;;;;;;4957219;28;20453;-81
2021/07/20 04:56:43;;;;;;;7.13;4.73;;;12.70;96.30;;;;;;4959229;28;20181;-81
2021/07/20 04:59:11;;;;;;;7.10;5.57;;;12.60;96.30;;;;;;4962346;28;20418;-80
2021/07/20 05:01:38;;;;;;;6.87;5.00;;;12.70;96.30;;;;;;4981516;28;20496;-80
2021/07/20 05:04:04;;;;;;;7.60;5.70;;;12.70;96.30;;;;;;4964805;28;20429;-80
2021/07/20 05:06:30;;;;;;;11.60;6.10;;;12.70;96.30;;;;;;4979362;28;20409;-80
2021/07/20 05:08:56;;;;;;;11.50;6.70;;;12.80;96.30;;;;;;4980745;28;20418;-80
2021/07/20 05:11:22;;;;;;;9.70;5.90;;;12.90;96.30;;;;;;4962081;28;20445;-80
2021/07/20 05:13:49;;;;;;;13.10;6.80;;;13.10;96.30;;;;;;4979732;28;20452;-79
2021/07/20 05:16:15;;;;;;;7.33;5.93;;;13.20;96.30;;;;;;4962015;28;20536;-80
2021/07/20 05:18:45;;;;;;;7.43;6.10;;;13.30;96.30;;;;;;4979804;28;20445;-80
2021/07/20 05:21:11;;;;;;;9.77;5.90;;;13.40;96.30;;;;;;4979229;28;20433;-80
2021/07/20 05:23:39;;;;;;;11.80;5.57;;;13.40;96.30;;;;;;4977758;28;20799;-80
2021/07/20 05:26:07;;;;;;;11.87;6.57;;;13.40;96.30;;;;;;4981990;28;20964;-80
2021/07/20 05:28:33;;;;;;;13.53;6.10;;;13.30;96.30;;;;;;4999556;28;20419;-80
2021/07/20 05:31:01;;;;;;;6.90;4.93;;;13.30;96.30;;;;;;4979945;28;20432;-78
2021/07/20 05:33:28;;;;;;;6.73;5.00;;;13.30;96.30;;;;;;4995103;28;20448;-78
2021/07/20 05:35:55;;;;;;;9.17;5.80;;;13.40;96.30;;;;;;4995048;28;20914;-79
2021/07/20 05:38:21;;;;;;;13.10;5.60;;;13.50;96.30;;;;;;4979035;28;20413;-79
2021/07/20 05:40:49;;;;;;;6.57;5.63;;;13.60;96.30;;;;;;4996081;28;20487;-81
2021/07/20 05:43:15;;;;;;;12.10;6.43;;;13.60;96.30;;;;;;4998353;28;20794;-82
2021/07/20 05:45:42;;;;;;;10.20;6.33;;;13.70;96.30;;;;;;4997024;28;20455;-81
2021/07/20 05:48:08;;;;;;;10.30;7.17;;;13.80;96.30;;;;;;4978916;28;20436;-80
2021/07/20 05:50:36;;;;;;;15.63;6.97;;;14.00;96.30;;;;;;4998100;28;20441;-83
2021/07/20 05:53:02;;;;;;;14.83;7.40;;;14.10;96.30;;;;;;4996582;28;20232;-83
2021/07/20 05:55:29;;;;;;;14.83;6.80;;;14.20;96.30;;;;;;4978922;28;20445;-79
2021/07/20 05:57:57;;;;;;;12.10;6.30;;;14.30;96.30;;;;;;4977389;28;20175;-81
2021/07/20 06:00:25;;;;;;;9.10;6.50;;;14.40;96.30;;;;;;4995852;28;20401;-84
2021/07/20 06:02:51;;;;;;;9.20;6.90;;;14.30;96.30;;;;;;4994408;28;20920;-84
2021/07/20 06:05:19;;;;;;;16.77;6.80;;;14.40;96.30;;;;;;4994318;28;20499;-84
2021/07/20 06:07:45;;;;;;;11.07;6.80;;;14.60;96.30;;;;;;4993754;28;20420;-82
2021/07/20 06:10:14;;;;;;;21.03;6.30;;;14.70;96.30;;;;;;4994024;28;20409;-78
2021/07/20 06:12:43;;;;;;;7.97;6.37;;;14.70;96.30;;;;;;4977952;28;20932;-85
2021/07/20 06:15:09;;;;;;;10.73;6.13;;;14.80;96.30;;;;;;4994160;28;20997;-86
2021/07/20 06:17:34;;;;;;;9.60;6.80;;;14.90;96.30;;;;;;4974881;28;20456;-83
2021/07/20 06:20:00;;;;;;;10.93;6.60;;;14.90;96.30;;;;;;4973947;28;20414;-81
2021/07/20 06:22:32;;;;;;;11.63;6.77;;;14.90;96.30;;;;;;4947107;28;20190;-81
2021/07/20 06:24:59;;;;;;;15.80;7.47;;;14.80;96.30;;;;;;4976988;28;20410;-81
2021/07/20 06:27:26;;;;;;;9.70;6.43;;;14.90;96.30;;;;;;4967135;28;20420;-80
2021/07/20 06:29:55;;;;;;;14.83;6.43;;;15.10;96.30;;;;;;4939118;29;20959;-87
2021/07/20 06:32:23;;;;;;;10.03;6.60;;;15.30;96.30;;;;;;4954526;29;20441;-85
2021/07/20 06:34:49;;;;;;;10.30;6.53;;;15.30;96.30;;;;;;4952899;29;20857;-85
2021/07/20 06:37:16;;;;;;;16.97;7.53;;;15.40;96.30;;;;;;4953046;29;20419;-85
2021/07/20 06:39:43;;;;;;;9.87;6.50;;;15.40;96.30;;;;;;4954579;29;20514;-81
2021/07/20 06:42:10;;;;;;;11.03;6.43;;;15.60;96.30;;;;;;4973488;28;20437;-81
2021/07/20 06:44:36;;;;;;;11.70;6.70;;;15.80;96.30;;;;;;4958098;29;20419;-80
2021/07/20 06:47:03;;;;;;;14.70;6.90;;;16.00;96.30;;;;;;4970773;28;20445;-81
2021/07/20 06:49:30;;;;;;;11.17;5.50;;;16.10;96.30;;;;;;4977676;28;20440;-81
2021/07/20 06:51:55;;;;;;;12.07;6.67;;;16.10;96.30;;;;;;4960585;28;20446;-81
2021/07/20 06:54:21;;;;;;;10.23;6.83;;;16.30;96.30;;;;;;4961786;28;20454;-81
2021/07/20 06:56:51;;;;;;;10.13;6.67;;;16.40;96.30;;;;;;4974610;28;20182;-81
2021/07/20 06:59:18;;;;;;;11.50;6.63;;;16.40;96.30;;;;;;4976355;28;20194;-81
2021/07/20 07:01:45;;;;;;;10.97;6.60;;;16.50;96.30;;;;;;4955412;29;20471;-81
2021/07/20 07:04:27;;;;;;;8.17;5.43;;;16.80;96.30;;;;;;4956844;29;20425;-81
2021/07/20 07:06:56;;;;;;;11.97;6.97;;;16.70;96.30;;;;;;4962472;28;20413;-82
2021/07/20 07:09:26;;;;;;;8.77;6.47;;;16.60;96.30;;;;;;4958295;28;20417;-82
2021/07/20 07:11:52;;;;;;;12.13;6.30;;;16.70;96.30;;;;;;4990572;28;20446;-81
2021/07/20 07:14:19;;;;;;;8.53;6.20;;;16.80;96.30;;;;;;4956237;29;20955;-81
2021/07/20 07:16:46;;;;;;;12.47;6.80;;;16.90;96.30;;;;;;4958046;29;20466;-81
2021/07/20 07:19:15;;;;;;;11.47;6.37;;;16.90;96.30;;;;;;4955353;29;20422;-82
2021/07/20 07:21:42;;;;;;;8.10;6.20;;;17.20;96.30;;;;;;4967809;28;20468;-81
2021/07/20 07:24:11;;;;;;;11.10;6.50;;;17.50;96.30;;;;;;4962035;28;20414;-82
2021/07/20 07:26:39;;;;;;;12.70;6.17;;;17.50;96.30;;;;;;4974353;28;20430;-81
2021/07/20 07:29:07;;;;;;;8.50;6.27;;;17.50;96.30;;;;;;4960668;28;20520;-81
2021/07/20 07:31:32;;;;;;;11.53;6.90;;;17.50;96.30;;;;;;4957765;28;20446;-80
2021/07/20 07:33:58;;;;;;;10.70;6.90;;;17.90;96.30;;;;;;4981837;28;20459;-82
2021/07/20 07:36:24;;;;;;;10.20;6.43;;;17.90;96.30;;;;;;4979837;28;20174;-80
2021/07/20 07:38:51;;;;;;;13.73;6.43;;;18.00;96.30;;;;;;4998371;28;20692;-81
2021/07/20 07:41:17;;;;;;;9.30;7.03;;;18.10;96.30;;;;;;4998545;28;20456;-81
2021/07/20 07:43:44;;;;;;;9.63;6.17;;;18.10;96.30;;;;;;4956029;28;20430;-83
2021/07/20 07:46:11;;;;;;;9.33;6.90;;;18.10;96.30;;;;;;4937550;29;20461;-83
2021/07/20 07:48:39;;;;;;;9.03;6.20;;;18.20;96.30;;;;;;4936748;28;20487;-84
2021/07/20 07:51:07;;;;;;;9.80;5.93;;;18.30;96.30;;;;;;4946597;28;20449;-83
2021/07/20 07:53:35;;;;;;;8.73;6.80;;;18.40;96.30;;;;;;4972638;28;20452;-84
2021/07/20 07:56:02;;;;;;;16.47;6.70;;;18.20;96.30;;;;;;4969922;28;20426;-84
2021/07/20 07:58:29;;;;;;;12.50;6.77;;;18.40;96.30;;;;;;4965994;28;20483;-83
2021/07/20 08:01:00;;;;;;;10.03;6.80;;;18.50;96.30;;;;;;4971594;28;21100;-84
2021/07/20 08:03:31;;;;;;;7.60;6.10;;;18.80;96.30;;;;;;4971590;28;20445;-83
2021/07/20 08:05:59;;;;;;;8.33;6.30;;;19.10;96.30;;;;;;4973697;28;20425;-85
2021/07/20 08:08:25;;;;;;;8.00;6.70;;;18.90;96.30;;;;;;4980455;28;20416;-83
2021/07/20 08:10:51;;;;;;;10.10;6.93;;;19.10;96.30;;;;;;4968932;28;20442;-83
2021/07/20 08:13:19;;;;;;;8.57;6.00;;;19.20;96.30;;;;;;4968301;28;20449;-83
2021/07/20 08:15:47;;;;;;;11.67;6.33;;;19.30;96.30;;;;;;4973431;28;20907;-84
2021/07/20 08:18:12;;;;;;;10.37;6.40;;;19.40;96.30;;;;;;4972773;28;20441;-83
2021/07/20 08:20:38;;;;;;;12.20;6.30;;;;;;;;;;4973397;28;20445;-84
2021/07/20 08:23:04;;;;;;;7.70;5.80;;;19.40;96.30;;;;;;4940666;29;20182;-84
2021/07/20 08:25:39;;;;;;;6.00;5.17;;;19.40;96.10;;;;;;4972388;28;20480;-84
2021/07/20 08:28:08;;;;;;;9.00;5.30;;;19.60;95.90;;;;;;4969779;28;20185;-84
2021/07/20 08:30:41;;;;;;;8.67;5.27;;;19.30;95.30;;;;;;4955563;28;20450;-84
2021/07/20 08:33:09;;;;;;;10.10;4.63;;;19.20;91.30;;;;;;4964004;28;20988;-83
2021/07/20 08:35:37;;;;;;;5.70;3.67;;;19.60;95.60;;;;;;4957495;29;20418;-84
2021/07/20 08:38:09;;;;;;;4.53;3.20;;;20.10;93.80;;;;;;4939688;29;20415;-84
2021/07/20 08:40:49;;;;;;;8.40;3.03;;;20.30;88.60;;;;;;4939921;29;20856;-86
2021/07/20 08:43:46;;;;;;;3.90;3.50;;;20.40;90.20;;;;;;4959112;28;20593;-86
2021/07/20 08:46:31;;;;;;;20.70;3.73;;;20.10;87.40;;;;;;4958403;28;20460;-85
2021/07/20 08:49:30;;;;;;;4.07;3.67;;;19.90;93.20;;;;;;4976332;28;20394;-85
2021/07/20 08:52:23;;;;;;;6.50;3.57;;;19.60;91.70;;;;;;4952017;29;20888;-84
2021/07/20 08:54:54;;;;;;;3.77;3.47;;;19.30;94.40;;;;;;4939708;29;20423;-84
2021/07/20 08:57:29;;;;;;;6.30;4.27;;;19.00;96.30;;;;;;4956938;29;20455;-84
2021/07/20 09:00:12;;;;;;;10.27;5.20;;;18.40;96.30;;;;;;4956968;29;20409;-84
2021/07/20 09:03:15;;;;;;;6.67;5.30;;;18.20;96.30;;;;;;4958662;28;20933;-85
2021/07/20 09:05:54;;;;;;;9.30;6.00;;;17.90;96.30;;;;;;4958761;28;20405;-86
2021/07/20 09:08:32;;;;;;;8.67;6.00;;;17.70;96.30;;;;;;4956761;29;20861;-79
2021/07/20 09:11:09;;;;;;;9.00;6.93;;;17.50;96.30;;;;;;4956382;29;20442;-78
2021/07/20 09:13:37;;;;;;;10.67;6.53;;;17.50;96.30;;;;;;4957099;28;20540;-79
2021/07/20 09:16:10;;;;;;;11.53;6.20;;;17.50;96.30;;;;;;4970267;28;20425;-79
2021/07/20 09:18:49;;;;;;;8.77;5.93;;;17.50;96.30;;;;;;4974962;28;20897;-79
2021/07/20 09:21:18;;;;;;;7.80;6.23;;;17.60;96.30;;;;;;4957615;28;20808;-79
2021/07/20 09:24:06;;;;;;;11.50;5.53;;;17.50;96.30;;;;;;4967182;28;20469;-79
2021/07/20 09:26:43;;;;;;;8.67;5.00;;;17.60;96.30;;;;;;4951650;28;20426;-80
2021/07/20 09:29:13;;;;;;;11.10;4.87;;;17.70;96.30;;;;;;4972255;28;20445;-79
2021/07/20 09:32:03;;;;;;;5.40;4.47;;;17.90;96.30;;;;;;4974671;28;20904;-79
2021/07/20 09:34:48;;;;;;;6.17;4.07;;;18.20;96.30;;;;;;4974745;28;20524;-79
2021/07/20 09:37:22;;;;;;;5.70;3.97;;;18.20;96.30;;;;;;4973648;28;20427;-79
2021/07/20 09:40:06;;;;;;;7.50;4.00;;;18.30;96.30;;;;;;4969844;28;20429;-79
2021/07/20 09:42:34;;;;;;;6.30;4.77;;;18.60;96.30;;;;;;4974809;28;20956;-78
2021/07/20 09:45:11;;;;;;;10.17;5.20;;;18.60;96.30;;;;;;4974197;28;20418;-78
2021/07/20 09:47:54;;;;;;;11.83;5.40;;;18.80;96.30;;;;;;4974378;28;20425;-79
2021/07/20 09:50:22;;;;;;;12.43;5.73;;;18.60;96.30;;;;;;4957750;28;20937;-79
2021/07/20 09:53:19;;;;;;;9.63;5.10;;;18.60;96.30;;;;;;4974091;28;20952;-79
2021/07/20 09:56:07;;;;;;;5.67;5.07;;;18.20;96.30;;;;;;4955590;28;20937;-79
2021/07/20 09:58:43;;;;;;;5.87;5.27;;;18.30;96.30;;;;;;4963693;28;20953;-79
2021/07/20 10:01:14;;;;;;;9.97;5.90;;;18.30;96.30;;;;;;4974813;28;20444;-79
2021/07/20 10:04:12;;;;;;;8.37;5.50;;;18.50;96.30;;;;;;4973319;28;20421;-79
2021/07/20 10:07:01;;;;;;;6.90;5.87;;;18.30;96.30;;;;;;4974206;28;20473;-79
2021/07/20 10:09:36;;;;;;;10.73;6.07;;;18.20;96.30;;;;;;4942503;28;20426;-78
2021/07/20 10:12:24;;;;;;;6.13;5.23;;;18.20;96.30;;;;;;4955244;29;20429;-78
2021/07/20 10:15:06;;;;;;;10.47;5.60;;;18.10;96.30;;;;;;4972302;28;20441;-78
2021/07/20 10:17:37;;;;;;;6.37;5.50;;;18.00;96.30;;;;;;4976937;28;20405;-81
2021/07/20 10:20:12;;;;;;;7.83;5.30;;;17.80;96.30;;;;;;4961480;29;20403;-82
2021/07/20 10:23:01;;;;;;;7.13;4.90;;;17.60;96.30;;;;;;4962640;29;20485;-83
2021/07/20 10:25:40;;;;;;;8.30;4.80;;;17.50;96.30;;;;;;4962511;29;20399;-81
2021/07/20 10:28:25;;;;;;;6.57;5.50;;;17.30;96.30;;;;;;4952766;29;20441;-82
2021/07/20 10:31:01;;;;;;;7.17;5.50;;;17.10;96.30;;;;;;4940063;29;20942;-82
2021/07/20 10:33:37;;;;;;;11.00;6.63;;;17.20;96.30;;;;;;4941725;28;21036;-81
2021/07/20 10:36:16;;;;;;;8.17;6.20;;;17.30;96.30;;;;;;4945080;28;20796;-80
2021/07/20 10:38:47;;;;;;;6.60;5.90;;;17.50;96.30;;;;;;4973328;28;20421;-80
2021/07/20 10:41:18;;;;;;;8.13;5.60;;;17.70;96.30;;;;;;4967199;28;20449;-80
2021/07/20 10:44:04;;;;;;;8.33;6.33;;;17.90;96.30;;;;;;4955474;29;20503;-81
2021/07/20 10:46:32;;;;;;;11.87;6.40;;;17.80;96.30;;;;;;4940396;29;20505;-79
2021/07/20 10:49:21;;;;;;;9.63;6.90;;;18.00;96.30;;;;;;4958523;28;20434;-79
2021/07/20 10:51:49;;;;;;;14.93;8.13;;;18.40;96.30;;;;;;4958938;29;20446;-79
2021/07/20 10:54:22;;;;;;;14.30;8.13;;;18.90;96.30;;;;;;4958351;28;20461;-79
2021/07/20 10:57:01;;;;;;;8.63;7.73;;;19.40;96.30;;;;;;4956534;28;20450;-79
2021/07/20 10:59:56;;;;;;;9.83;7.53;;;20.30;96.30;;;;;;4970001;28;20477;-81
2021/07/20 11:02:40;;;;;;;16.50;8.10;;;20.90;96.10;;;;;;4973692;28;20426;-80
2021/07/20 11:05:09;;;;;;;12.23;6.60;;;21.00;93.30;;;;;;4973733;28;20394;-80
2021/07/20 11:07:46;;;;;;;18.30;7.17;;;20.60;94.50;;;;;;4973067;28;20409;-81
2021/07/20 11:10:50;;;;;;;10.63;7.70;;;20.00;95.90;;;;;;4959180;28;20429;-79
2021/07/20 11:13:25;;;;;;;12.70;8.23;;;19.50;96.30;;;;;;4963776;28;20453;-79
2021/07/20 11:15:53;;;;;;;13.20;8.47;;;19.40;96.30;;;;;;4980323;28;20410;-79
2021/07/20 11:18:32;;;;;;;12.83;8.23;;;19.10;96.30;;;;;;4957115;29;20421;-79
2021/07/20 11:21:01;;;;;;;10.47;7.73;;;18.90;96.30;;;;;;4961931;28;20456;-79
2021/07/20 11:23:31;;;;;;;12.33;8.33;;;18.60;96.30;;;;;;4963577;28;20435;-79
2021/07/20 11:25:58;;;;;;;10.03;7.43;;;18.40;96.30;;;;;;4980376;28;20783;-79
2021/07/20 11:28:25;;;;;;;12.10;7.67;;;18.20;96.30;;;;;;4962411;28;20434;-79
2021/07/20 11:30:54;;;;;;;18.60;8.57;;;18.00;96.30;;;;;;4951714;28;20485;-79
2021/07/20 11:33:55;;;;;;;12.20;8.07;;;17.90;96.30;;;;;;4961950;28;20457;-78
2021/07/20 11:36:25;;;;;;;11.03;7.60;;;17.80;96.30;;;;;;4920608;28;20456;-78
2021/07/20 11:38:55;;;;;;;9.43;7.83;;;17.50;96.30;;;;;;4954455;28;20926;-79
2021/07/20 11:41:46;;;;;;;15.67;7.90;;;17.30;96.30;;;;;;4979362;28;20501;-78
2021/07/20 11:44:25;;;;;;;10.60;7.30;;;17.00;96.30;;;;;;4962783;28;20513;-78
2021/07/20 11:47:08;;;;;;;14.33;7.67;;;16.50;96.30;;;;;;4962338;28;20460;-78
2021/07/20 11:49:43;;;;;;;12.30;7.60;;;16.20;96.30;;;;;;4978968;28;20854;-78
2021/07/20 11:52:24;;;;;;;12.10;8.27;;;16.10;96.30;;;;;;4976185;28;20803;-79
2021/07/20 11:55:01;;;;;;;9.43;7.50;;;16.10;96.30;;;;;;4974499;28;20560;-83
2021/07/20 11:58:06;;;;;;;12.40;7.80;;;16.10;96.30;;;;;;4963014;28;20421;-82
2021/07/20 12:01:20;;;;;;;14.70;7.00;;;16.30;96.30;;;;;;4989438;28;20452;-82
2021/07/20 12:04:19;;;;;;;13.93;8.17;;;16.40;96.30;;;;;;4988649;28;20433;-82
2021/07/20 12:07:25;;;;;;;14.03;7.80;;;16.70;96.30;;;;;;4968767;28;20449;-83
2021/07/20 12:10:23;;;;;;;14.67;8.07;;;16.80;96.30;;;;;;4951084;29;20878;-84
2021/07/20 12:12:56;;;;;;;15.00;7.30;;;16.90;96.30;;;;;;4959379;29;20807;-84
2021/07/20 12:15:27;;;;;;;13.90;7.30;;;16.90;96.30;;;;;;4979626;28;20504;-84
2021/07/20 12:17:54;;;;;;;14.33;7.50;;;16.80;96.30;;;;;;4977576;28;20398;-83
2021/07/20 12:20:23;;;;;;;10.70;7.70;;;16.90;96.30;;;;;;4978492;28;20504;-83
2021/07/20 12:22:55;;;;;;;13.33;7.80;;;16.80;96.30;;;;;;4975346;28;20425;-83
2021/07/20 12:25:21;;;;;;;9.50;7.37;;;16.60;96.30;;;;;;4960167;28;20428;-82
2021/07/20 12:27:51;;;;;;;14.47;7.97;;;16.70;96.30;;;;;;4961026;28;20481;-82
2021/07/20 12:30:21;;;;;;;12.40;7.47;;;16.60;96.30;;;;;;4963821;28;20501;-84
2021/07/20 12:32:46;;;;;;;10.63;7.07;;;16.70;96.30;;;;;;4945712;28;20430;-81
2021/07/20 12:35:27;;;;;;;10.93;7.47;;;16.80;96.30;;;;;;4978450;28;20416;-81
2021/07/20 12:38:08;;;;;;;11.77;6.97;;;16.80;96.30;;;;;;4959224;28;20823;-81
2021/07/20 12:40:37;;;;;;;7.67;6.60;;;17.10;96.30;;;;;;4959189;29;20918;-81
2021/07/20 12:43:06;;;;;;;8.53;6.50;;;17.20;96.30;;;;;;4972081;28;20425;-82
2021/07/20 12:45:32;;;;;;;12.13;7.60;;;17.60;96.30;;;;;;4949559;28;20453;-82
2021/07/20 12:47:58;;;;;;;12.13;7.47;;;;;;;;;;4970984;28;20473;-82
2021/07/20 12:50:24;;;;;;;15.47;6.03;;;;;;;;;;4976099;28;20209;-82
2021/07/20 12:52:50;;;;;;;11.47;6.53;;;18.20;96.30;;;;;;4961237;28;20178;-81
2021/07/20 12:55:19;;;;;;;9.90;7.10;;;18.70;96.30;;;;;;4962770;28;20909;-83
2021/07/20 12:57:55;;;;;;;8.93;6.00;;;19.10;96.30;;;;;;4979587;28;20809;-82
2021/07/20 13:00:24;;;;;;;10.00;6.20;;;19.30;96.30;;;;;;4977066;28;20418;-82
2021/07/20 13:03:03;;;;;;;12.43;6.07;;;19.30;96.30;;;;;;4972937;28;20445;-81
2021/07/20 13:05:30;;;;;;;8.73;6.60;;;19.70;96.30;;;;;;4976465;28;20421;-82
2021/07/20 13:07:58;;;;;;;9.10;5.83;;;20.00;96.30;;;;;;4976443;28;20433;-82
2021/07/20 13:10:24;;;;;;;8.73;6.57;;;20.20;96.30;;;;;;4959538;28;20430;-82
2021/07/20 13:12:53;;;;;;;10.00;5.83;;;20.30;96.30;;;;;;4976889;28;20425;-82
2021/07/20 13:15:23;;;;;;;7.80;5.60;;;20.40;96.30;;;;;;4976757;28;20561;-84
2021/07/20 13:17:53;;;;;;;7.07;5.60;;;20.20;96.30;;;;;;4975733;28;20409;-84
2021/07/20 13:20:30;;;;;;;7.17;5.63;;;20.20;94.90;;;;;;4980692;28;20934;-83
2021/07/20 13:22:57;;;;;;;6.33;5.30;;;19.70;96.10;;;;;;4976652;28;20417;-82
2021/07/20 13:25:23;;;;;;;6.50;5.80;;;19.60;96.30;;;;;;4976504;28;20913;-82
2021/07/20 13:27:52;;;;;;;7.47;6.30;;;19.40;96.30;;;;;;4976462;28;20425;-83
2021/07/20 13:30:21;;;;;;;12.70;6.57;;;19.30;96.30;;;;;;4968593;28;20423;-82
2021/07/20 13:32:48;;;;;;;7.50;6.33;;;19.20;96.30;;;;;;4957918;28;20410;-83
2021/07/20 13:35:15;;;;;;;6.97;6.27;;;19.50;96.30;;;;;;4949715;29;20433;-84
2021/07/20 13:37:41;;;;;;;10.87;6.63;;;19.50;96.30;;;;;;4955197;29;20470;-84
2021/07/20 13:40:10;;;;;;;9.67;6.70;;;19.40;96.30;;;;;;4963798;28;20425;-85
2021/07/20 13:42:38;;;;;;;10.30;6.80;;;19.60;96.30;;;;;;4959357;28;20540;-80
2021/07/20 13:45:08;;;;;;;12.90;6.80;;;19.60;96.30;;;;;;4975085;28;20457;-83
2021/07/20 13:47:40;;;;;;;7.97;5.87;;;19.70;96.30;;;;;;4939866;29;20955;-83
2021/07/20 13:50:09;;;;;;;7.90;6.10;;;19.90;96.30;;;;;;4952147;28;20441;-84
2021/07/20 13:52:36;;;;;;;8.33;6.40;;;20.10;96.30;;;;;;4974744;28;20445;-83
2021/07/20 13:55:05;;;;;;;11.40;6.67;;;20.00;96.30;;;;;;4974816;28;20524;-84
2021/07/20 13:57:32;;;;;;;7.53;6.53;;;20.10;96.30;;;;;;4957392;28;20421;-84
2021/07/20 13:59:59;;;;;;;11.93;6.90;;;19.80;96.30;;;;;;4974326;28;20426;-83
2021/07/20 14:02:26;;;;;;;12.20;6.70;;;19.50;96.30;;;;;;4957377;28;20449;-83
2021/07/20 14:04:53;;;;;;;10.63;6.27;;;19.50;96.30;;;;;;4957452;28;20432;-83
2021/07/20 14:07:22;;;;;;;8.00;7.23;;;19.50;96.30;;;;;;4974119;28;20421;-83
2021/07/20 14:09:50;;;;;;;12.40;7.70;;;19.40;96.30;;;;;;4959951;28;20456;-80
2021/07/20 14:12:16;;;;;;;7.27;5.87;;;19.70;96.30;;;;;;4979227;28;20464;-80
2021/07/20 14:14:43;;;;;;;10.73;7.67;;;19.50;96.10;;;;;;4979212;28;20488;-80
2021/07/20 14:17:09;;;;;;;8.03;6.30;;;19.50;96.30;;;;;;4959998;28;20440;-80
2021/07/20 14:19:35;;;;;;;6.73;6.03;;;19.70;96.30;;;;;;4963552;28;20504;-79
2021/07/20 14:22:03;;;;;;;11.57;6.23;;;19.70;96.30;;;;;;4974904;28;20529;-78
2021/07/20 14:24:29;;;;;;;10.37;6.27;;;19.70;96.30;;;;;;4957208;28;20182;-78
2021/07/20 14:26:58;;;;;;;9.33;6.50;;;19.90;96.30;;;;;;4956680;28;20844;-79
2021/07/20 14:29:27;;;;;;;14.40;7.07;;;20.30;96.30;;;;;;4956003;28;20651;-78
2021/07/20 14:32:11;;;;;;;14.43;6.03;;;19.80;96.30;;;;;;4968169;28;20556;-78
2021/07/20 14:34:46;;;;;;;11.40;5.90;;;19.80;96.30;;;;;;4954182;29;20559;-80
2021/07/20 14:37:53;;;;;;;6.40;5.40;;;19.70;96.30;;;;;;4955079;28;20445;-78
2021/07/20 14:40:19;;;;;;;8.20;6.10;;;19.90;96.30;;;;;;4946530;29;20430;-79
2021/07/20 14:42:47;;;;;;;11.67;5.90;;;20.10;96.30;;;;;;4966625;28;20445;-79
2021/07/20 14:45:15;;;;;;;9.97;5.87;;;20.30;96.30;;;;;;4975492;28;20174;-79
2021/07/20 14:47:40;;;;;;;8.90;5.50;;;;;;;;;;4975134;28;20872;-80
2021/07/20 14:50:28;;;;;;;11.60;5.30;;;20.50;96.30;;;;;;4975019;28;20413;-79
2021/07/20 14:53:08;;;;;;;6.13;5.00;;;20.50;94.20;;;;;;4974497;28;20174;-79
2021/07/20 14:55:40;;;;;;;10.93;5.60;;;20.10;96.30;;;;;;4978115;28;20488;-79
2021/07/20 14:58:07;;;;;;;8.33;6.20;;;;;;;;;;4993021;28;20417;-79
2021/07/20 15:00:51;;;;;;;14.00;5.60;;;20.00;96.30;;;;;;4993818;28;20440;-79
2021/07/20 15:03:48;;;;;;;8.17;5.70;;;20.00;95.10;;;;;;4994288;28;20450;-79
2021/07/20 15:06:32;;;;;;;6.10;5.50;;;19.50;94.30;;;;;;4994181;28;20932;-80
2021/07/20 15:09:07;;;;;;;6.97;5.10;;;19.90;96.30;;;;;;4994117;28;20474;-80
2021/07/20 15:11:47;;;;;;;6.80;5.30;;;20.20;95.40;;;;;;4993925;28;20435;-79
2021/07/20 15:14:25;;;;;;;9.27;5.00;;;20.20;96.30;;;;;;4977799;28;20464;-79
2021/07/20 15:17:02;;;;;;;9.50;5.50;;;20.00;96.30;;;;;;4985218;28;20409;-79
2021/07/20 15:19:28;;;;;;;4.83;4.33;;;20.30;95.50;;;;;;4973501;28;20928;-78
2021/07/20 15:21:56;;;;;;;12.83;5.70;;;20.00;94.90;;;;;;4973257;28;20434;-78
2021/07/20 15:24:24;;;;;;;6.07;4.83;;;19.80;96.30;;;;;;4973450;28;20188;-79
2021/07/20 15:26:52;;;;;;;10.90;5.00;;;19.70;95.80;;;;;;4955530;28;20410;-79
2021/07/20 15:29:19;;;;;;;11.40;5.60;;;19.30;96.30;;;;;;4973417;28;20428;-79
2021/07/20 15:31:47;;;;;;;11.33;5.47;;;19.30;96.30;;;;;;4973769;28;20441;-78
2021/07/20 15:34:22;;;;;;;11.37;5.80;;;19.50;96.30;;;;;;4975178;28;20516;-78
2021/07/20 15:37:07;;;;;;;7.67;4.80;;;19.90;95.90;;;;;;4956996;28;20747;-78
2021/07/20 15:39:42;;;;;;;9.90;5.60;;;20.30;92.90;;;;;;4975223;28;20452;-78
2021/07/20 15:42:09;;;;;;;9.20;4.97;;;20.50;93.30;;;;;;4974039;28;20815;-78
2021/07/20 15:44:34;;;;;;;14.33;5.03;;;;;;;;;;4974234;28;20470;-78
2021/07/20 15:47:00;;;;;;;12.13;5.87;;;20.80;94.00;;;;;;4956667;28;20482;-78
2021/07/20 15:49:25;;;;;;;5.60;4.67;;;21.10;93.40;;;;;;4970074;28;20190;-78
2021/07/20 15:51:52;;;;;;;7.30;5.27;;;20.60;90.60;;;;;;4975353;28;20570;-78
2021/07/20 15:54:19;;;;;;;7.33;4.80;;;20.20;92.90;;;;;;4984469;28;20193;-78
2021/07/20 15:56:44;;;;;;;7.17;4.73;;;19.80;93.20;;;;;;4972111;28;20414;-78
2021/07/20 15:59:10;;;;;;;9.20;5.50;;;;;;;;;;4954378;28;20417;-78
2021/07/20 16:01:38;;;;;;;6.17;4.67;;;19.30;96.30;;;;;;4953708;28;20201;-78
2021/07/20 16:04:05;;;;;;;7.90;5.30;;;19.20;96.30;;;;;;4954252;28;20182;-78
2021/07/20 16:06:31;;;;;;;9.03;4.80;;;;;;;;;;4971906;28;20452;-78
2021/07/20 16:08:58;;;;;;;7.40;5.63;;;18.80;96.30;;;;;;4972863;28;20414;-78
2021/07/20 16:11:26;;;;;;;8.13;5.17;;;18.80;96.30;;;;;;4972722;28;20436;-78
2021/07/20 16:13:54;;;;;;;9.67;4.23;;;18.80;96.30;;;;;;4972577;28;20988;-78
2021/07/20 16:16:24;;;;;;;8.23;5.93;;;18.60;95.60;;;;;;4952903;28;20434;-78
2021/07/20 16:18:50;;;;;;;6.03;5.30;;;;;;;;;;4963815;28;20418;-79
2021/07/20 16:21:16;;;;;;;20.53;4.77;;;18.50;96.30;;;;;;4971923;28;20457;-77
2021/07/20 16:23:42;;;;;;;6.83;5.67;;;18.50;96.30;;;;;;4972641;28;20540;-78
2021/07/20 16:26:08;;;;;;;7.00;4.50;;;18.50;96.30;;;;;;4971581;28;20437;-78
2021/07/20 16:28:40;;;;;;;8.10;5.27;;;18.60;96.30;;;;;;4980328;28;20229;-77
2021/07/20 16:31:06;;;;;;;8.97;5.07;;;18.70;96.30;;;;;;4973000;28;20511;-78
2021/07/20 16:33:33;;;;;;;15.47;5.57;;;18.70;96.30;;;;;;4972114;28;20603;-78
2021/07/20 16:36:01;;;;;;;7.20;4.73;;;18.70;96.30;;;;;;4972003;28;20957;-77
2021/07/20 16:38:27;;;;;;;8.00;4.63;;;18.70;96.30;;;;;;4973994;28;20444;-79
2021/07/20 16:40:58;;;;;;;8.07;4.53;;;18.60;96.30;;;;;;4955379;28;20446;-78
2021/07/20 16:43:27;;;;;;;6.80;4.40;;;18.50;96.30;;;;;;4955916;28;20422;-78
2021/07/20 16:45:58;;;;;;;6.27;5.47;;;18.50;96.30;;;;;;4971604;28;20484;-76
2021/07/20 16:48:25;;;;;;;5.97;5.30;;;18.50;96.30;;;;;;4955890;28;20441;-78
2021/07/20 16:50:54;;;;;;;7.10;4.70;;;18.50;96.30;;;;;;4973776;28;20846;-78
2021/07/20 16:53:20;;;;;;;6.40;4.90;;;18.40;96.30;;;;;;4971174;28;20569;-78
2021/07/20 16:55:46;;;;;;;15.73;5.70;;;18.40;96.30;;;;;;4975735;28;20418;-78
2021/07/20 16:58:12;;;;;;;10.30;5.40;;;18.40;96.30;;;;;;4975236;28;20414;-78
2021/07/20 17:00:38;;;;;;;9.20;4.70;;;18.40;96.30;;;;;;4974902;28;20433;-78
2021/07/20 17:03:06;;;;;;;6.40;5.30;;;18.30;96.30;;;;;;4974549;28;20528;-78
2021/07/20 17:05:34;;;;;;;7.57;4.80;;;18.30;96.30;;;;;;4975024;28;20413;-78
2021/07/20 17:08:06;;;;;;;10.73;4.50;;;18.20;96.30;;;;;;4957719;28;20944;-78
2021/07/20 17:10:34;;;;;;;9.27;4.27;;;18.00;96.30;;;;;;4958137;28;20433;-78
2021/07/20 17:13:00;;;;;;;6.37;4.57;;;17.80;96.30;;;;;;4958239;28;20429;-78
2021/07/20 17:15:27;;;;;;;6.30;4.67;;;17.80;96.30;;;;;;4973060;28;20528;-78
2021/07/20 17:17:56;;;;;;;4.90;4.37;;;17.80;96.30;;;;;;4956710;28;20851;-78
2021/07/20 17:20:22;;;;;;;6.30;4.27;;;17.80;96.30;;;;;;4974171;28;20414;-77
2021/07/20 17:22:50;;;;;;;7.40;4.40;;;17.90;96.30;;;;;;4971613;28;20426;-77
2021/07/20 17:25:20;;;;;;;8.17;4.70;;;17.80;96.30;;;;;;4949694;29;20175;-77
2021/07/20 17:27:46;;;;;;;7.93;3.90;;;17.90;96.30;;;;;;4940949;28;20814;-78
2021/07/20 17:30:12;;;;;;;13.40;4.90;;;;;;;;;;4973722;28;20508;-78
2021/07/20 17:32:38;;;;;;;20.47;4.97;;;17.90;96.30;;;;;;4974226;28;20520;-77
2021/07/20 17:35:10;;;;;;;5.50;4.20;;;18.00;96.30;;;;;;4952022;28;20553;-78